createdAt,value
2023-04-11T00:02:00.839Z,21.30
2023-04-11T00:04:39.488Z,21.43
2023-04-11T00:07:11.412Z,20.43
2023-04-11T00:09:46.805Z,21.00
2023-04-11T00:12:22.793Z,20.37
2023-04-11T00:14:53.954Z,20.57
2023-04-11T00:17:23.898Z,20.60
2023-04-11T00:19:53.381Z,21.13
2023-04-11T00:22:24.103Z,20.80
2023-04-11T00:24:53.718Z,20.37
2023-04-11T00:27:22.101Z,20.10
2023-04-11T00:29:50.391Z,20.73
2023-04-11T00:32:18.663Z,20.33
2023-04-11T00:34:48.893Z,20.60
2023-04-11T00:37:17.761Z,21.00
2023-04-11T00:39:50.333Z,20.43
2023-04-11T00:42:20.572Z,20.07
2023-04-11T00:44:48.861Z,19.67
2023-04-11T00:47:17.223Z,20.70
2023-04-11T00:49:45.834Z,20.50
2023-04-11T00:52:14.116Z,20.57
2023-04-11T00:54:44.643Z,19.80
2023-04-11T00:57:20.228Z,20.13
2023-04-11T00:59:53.973Z,20.83
2023-04-11T01:02:25.080Z,19.77
2023-04-11T01:05:00.984Z,20.87
2023-04-11T01:07:36.996Z,20.37
2023-04-11T01:10:09.071Z,19.97
2023-04-11T01:12:43.865Z,20.63
2023-04-11T01:15:18.974Z,20.63
2023-04-11T01:17:53.152Z,21.40
2023-04-11T01:20:24.718Z,20.43
2023-04-11T01:22:53.933Z,21.20
2023-04-11T01:25:27.098Z,20.37
2023-04-11T01:27:58.101Z,20.53
2023-04-11T01:30:29.379Z,21.53
2023-04-11T01:33:07.436Z,19.87
2023-04-11T01:35:47.222Z,20.47
2023-04-11T01:38:19.081Z,20.00
2023-04-11T01:40:58.213Z,19.63
2023-04-11T01:43:32.853Z,20.50
2023-04-11T01:46:08.059Z,20.87
2023-04-11T01:48:38.901Z,18.50
2023-04-11T01:51:08.404Z,19.80
2023-04-11T01:53:36.687Z,20.97
2023-04-11T01:56:07.360Z,20.67
2023-04-11T01:58:36.249Z,21.80
2023-04-11T02:01:06.330Z,20.70
2023-04-11T02:03:34.790Z,21.23
2023-04-11T02:06:03.337Z,21.43
2023-04-11T02:08:33.914Z,20.17
2023-04-11T02:11:07.955Z,20.10
2023-04-11T02:13:36.442Z,20.70
2023-04-11T02:16:11.793Z,20.97
2023-04-11T02:18:58.887Z,20.30
2023-04-11T02:21:28.229Z,20.37
2023-04-11T02:24:06.264Z,20.70
2023-04-11T02:26:46.116Z,21.40
2023-04-11T02:29:20.941Z,21.00
2023-04-11T02:31:58.114Z,20.23
2023-04-11T02:34:43.641Z,20.97
2023-04-11T02:37:20.967Z,20.60
2023-04-11T02:39:49.991Z,19.80
2023-04-11T02:42:34.569Z,21.20
2023-04-11T02:45:14.954Z,20.23
2023-04-11T02:47:47.506Z,20.27
2023-04-11T02:50:26.434Z,20.87
2023-04-11T02:53:01.114Z,21.03
2023-04-11T02:55:33.493Z,19.93
2023-04-11T02:58:12.661Z,21.77
2023-04-11T03:00:52.796Z,20.47
2023-04-11T03:03:26.583Z,21.07
2023-04-11T03:06:05.160Z,21.13
2023-04-11T03:08:45.483Z,20.87
2023-04-11T03:11:20.337Z,21.20
2023-04-11T03:13:55.793Z,20.80
2023-04-11T03:16:24.109Z,21.80
2023-04-11T03:18:52.324Z,21.77
2023-04-11T03:21:20.827Z,20.70
2023-04-11T03:23:50.010Z,21.00
2023-04-11T03:26:19.035Z,22.43
2023-04-11T03:28:51.222Z,21.10
2023-04-11T03:31:21.415Z,20.63
2023-04-11T03:33:51.626Z,21.43
2023-04-11T03:36:19.828Z,20.70
2023-04-11T03:38:50.765Z,19.90
2023-04-11T03:41:21.112Z,19.80
2023-04-11T03:43:51.545Z,21.37
2023-04-11T03:46:21.832Z,20.07
2023-04-11T03:49:02.007Z,19.57
2023-04-11T03:51:41.243Z,19.90
2023-04-11T03:54:22.772Z,20.47
2023-04-11T03:57:03.937Z,34.87
2023-04-11T03:59:43.719Z,20.33
2023-04-11T04:02:24.204Z,20.40
2023-04-11T04:04:59.984Z,21.20
2023-04-11T04:07:43.808Z,21.33
2023-04-11T04:10:25.673Z,20.60
2023-04-11T04:12:56.318Z,20.47
2023-04-11T04:15:38.704Z,21.27
2023-04-11T04:21:21.573Z,23.27
2023-04-11T04:23:56.775Z,22.17
2023-04-11T04:26:39.845Z,22.80
2023-04-11T04:29:34.254Z,22.87
2023-04-11T04:32:13.495Z,23.53
2023-04-11T04:34:57.869Z,21.67
2023-04-11T04:40:50.591Z,21.70
2023-04-11T04:43:24.783Z,22.70
2023-04-11T04:46:15.772Z,22.17
2023-04-11T04:48:49.898Z,21.67
2023-04-11T04:51:20.505Z,24.37
2023-04-11T04:53:50.166Z,21.53
2023-04-11T04:56:18.384Z,23.83
2023-04-11T04:58:48.653Z,23.30
2023-04-11T05:01:18.701Z,24.33
2023-04-11T05:03:58.984Z,23.13
2023-04-11T05:06:41.295Z,24.27
2023-04-11T05:09:09.815Z,22.63
2023-04-11T05:11:38.053Z,21.93
2023-04-11T05:14:09.688Z,22.93
2023-04-11T05:16:43.376Z,24.47
2023-04-11T05:19:13.008Z,21.90
2023-04-11T05:21:45.378Z,23.00
2023-04-11T05:24:13.708Z,23.10
2023-04-11T05:26:41.972Z,23.33
2023-04-11T05:29:12.686Z,22.77
2023-04-11T05:31:40.886Z,22.53
2023-04-11T05:34:09.311Z,22.60
2023-04-11T05:36:39.146Z,23.17
2023-04-11T05:39:07.257Z,23.13
2023-04-11T05:41:35.555Z,26.27
2023-04-11T05:44:05.188Z,27.17
2023-04-11T05:46:37.561Z,26.70
2023-04-11T05:49:09.188Z,25.57
2023-04-11T05:51:42.095Z,23.63
2023-04-11T05:54:15.687Z,24.07
2023-04-11T05:57:02.474Z,25.67
2023-04-11T06:00:20.857Z,27.10
2023-04-11T06:10:44.230Z,25.80
2023-04-11T06:13:13.054Z,25.43
2023-04-11T06:15:57.267Z,25.97
2023-04-11T06:22:26.365Z,25.43
2023-04-11T07:08:06.758Z,21.70
2023-04-11T07:10:37.112Z,22.60
2023-04-11T07:13:21.445Z,24.43
2023-04-11T07:16:00.239Z,24.30
2023-04-11T07:18:32.672Z,24.83
2023-04-11T07:21:10.402Z,26.27
2023-04-11T07:23:46.723Z,24.03
2023-04-11T07:26:23.781Z,25.33
2023-04-11T07:29:14.361Z,28.37
2023-04-11T07:32:00.862Z,26.67
2023-04-11T07:34:36.004Z,27.20
2023-04-11T07:37:12.862Z,27.60
2023-04-11T07:39:52.744Z,25.10
2023-04-11T07:42:26.746Z,23.50
2023-04-11T07:44:58.767Z,24.13
2023-04-11T07:47:40.621Z,24.10
2023-04-11T07:50:12.364Z,22.40
2023-04-11T07:53:13.019Z,23.47
2023-04-11T07:55:53.252Z,20.93
2023-04-11T07:58:22.401Z,20.53
2023-04-11T08:00:56.949Z,19.30
2023-04-11T08:03:34.877Z,20.03
2023-04-11T08:06:08.466Z,20.33
2023-04-11T08:08:41.487Z,21.63
2023-04-11T08:11:20.275Z,20.77
2023-04-11T08:14:05.524Z,20.03
2023-04-11T08:17:03.273Z,19.90
2023-04-11T08:19:46.828Z,19.63
2023-04-11T08:22:59.605Z,19.60
2023-04-11T08:29:41.605Z,19.23
2023-04-11T08:32:38.741Z,20.63
2023-04-11T08:35:41.821Z,19.40
2023-04-11T08:41:33.224Z,19.17
2023-04-11T08:44:20.820Z,18.77
2023-04-11T08:47:04.372Z,17.90
2023-04-11T08:49:40.294Z,19.40
2023-04-11T08:52:45.287Z,19.30
2023-04-11T08:58:10.686Z,18.13
2023-04-11T09:00:49.036Z,19.03
2023-04-11T09:03:24.154Z,18.77
2023-04-11T09:05:52.875Z,20.30
2023-04-11T09:08:23.712Z,21.57
2023-04-11T09:11:12.134Z,21.40
2023-04-11T09:18:09.798Z,19.67
2023-04-11T09:21:26.903Z,20.00
2023-04-11T09:24:37.316Z,18.17
2023-04-11T09:42:56.980Z,17.70
2023-04-11T09:45:32.271Z,17.13
2023-04-11T09:57:18.571Z,17.23
2023-04-11T10:00:36.715Z,16.93
2023-04-11T10:03:25.590Z,17.13
2023-04-11T10:07:39.854Z,18.83
2023-04-11T10:10:09.143Z,16.97
2023-04-11T10:17:57.166Z,17.33
2023-04-11T10:20:50.614Z,17.10
2023-04-11T10:23:19.173Z,16.53
2023-04-11T10:25:59.182Z,15.87
2023-04-11T10:28:48.361Z,17.47
2023-04-11T10:31:47.133Z,17.70
2023-04-11T10:34:17.930Z,16.73
2023-04-11T10:37:15.238Z,18.70
2023-04-11T10:40:19.547Z,17.50
2023-04-11T10:42:55.043Z,17.00
2023-04-11T10:45:39.935Z,17.40
2023-04-11T10:48:25.683Z,16.50
2023-04-11T10:50:58.319Z,17.00
2023-04-11T10:53:55.461Z,17.77
2023-04-11T10:57:01.167Z,17.37
2023-04-11T11:00:16.365Z,17.40
2023-04-11T11:02:53.115Z,16.10
2023-04-11T11:13:43.225Z,41.17
2023-04-11T11:32:21.607Z,22.10
2023-04-11T12:12:26.787Z,20.43
2023-04-11T12:18:37.154Z,18.20
2023-04-11T12:30:11.173Z,17.70
2023-04-11T12:32:53.689Z,18.17
2023-04-11T12:35:28.480Z,16.47
2023-04-11T12:37:57.302Z,17.40
2023-04-11T12:40:30.365Z,18.10
2023-04-11T12:43:22.249Z,18.23
2023-04-11T12:45:57.781Z,18.20
2023-04-11T12:49:07.434Z,17.13
2023-04-11T12:51:36.179Z,16.50
2023-04-11T12:54:08.073Z,16.60
2023-04-11T12:56:36.813Z,17.23
2023-04-11T12:59:05.164Z,17.03
2023-04-11T13:01:33.655Z,19.10
2023-04-11T13:07:01.919Z,17.47
2023-04-11T13:12:48.085Z,16.90
2023-04-11T13:15:38.846Z,18.00
2023-04-11T13:21:21.805Z,18.00
2023-04-11T13:24:00.013Z,17.70
2023-04-11T13:26:34.315Z,18.00
2023-04-11T13:29:11.678Z,17.63
2023-04-11T13:31:55.161Z,16.80
2023-04-11T13:34:32.869Z,15.93
2023-04-11T13:37:07.327Z,16.33
2023-04-11T13:39:53.843Z,16.67
2023-04-11T13:42:55.997Z,16.50
2023-04-11T13:46:09.184Z,16.93
2023-04-11T14:03:44.554Z,16.73
2023-04-11T14:13:48.342Z,18.97
2023-04-11T14:16:17.348Z,17.57
2023-04-11T14:19:02.462Z,17.47
2023-04-11T14:21:40.620Z,17.03
2023-04-11T15:39:51.441Z,16.03
2023-04-11T15:42:26.728Z,16.50
2023-04-11T15:45:09.192Z,15.50
2023-04-11T15:47:39.159Z,16.67
2023-04-11T15:50:08.579Z,16.70
2023-04-11T15:52:37.454Z,16.30
2023-04-11T15:55:09.423Z,16.17
2023-04-11T15:57:51.008Z,16.23
2023-04-11T16:00:26.629Z,16.73
2023-04-11T16:03:15.364Z,15.17
2023-04-11T16:05:47.390Z,16.10
2023-04-11T16:08:24.779Z,17.60
2023-04-11T16:10:55.505Z,16.83
2023-04-11T16:13:24.039Z,15.97
2023-04-11T16:15:52.795Z,17.40
2023-04-11T16:18:26.278Z,17.37
2023-04-11T16:20:57.008Z,16.90
2023-04-11T16:23:28.680Z,17.63
2023-04-11T16:25:58.700Z,16.70
2023-04-11T16:28:27.032Z,16.70
2023-04-11T16:30:58.593Z,18.17
2023-04-11T16:33:27.329Z,17.53
2023-04-11T16:35:55.829Z,16.90
2023-04-11T16:38:25.595Z,17.93
2023-04-11T16:40:54.471Z,17.90
2023-04-11T16:43:41.194Z,16.93
2023-04-11T16:46:14.384Z,15.97
2023-04-11T16:48:44.105Z,16.70
2023-04-11T16:51:16.161Z,16.20
2023-04-11T16:53:46.186Z,16.63
2023-04-11T16:56:15.026Z,17.23
2023-04-11T16:58:45.472Z,17.33
2023-04-11T17:01:14.426Z,17.57
2023-04-11T17:03:44.339Z,17.17
2023-04-11T17:06:14.750Z,16.00
2023-04-11T17:08:44.397Z,17.27
2023-04-11T17:11:14.297Z,17.70
2023-04-11T17:13:45.946Z,16.80
2023-04-11T17:16:14.657Z,17.33
2023-04-11T17:18:43.136Z,18.63
2023-04-11T17:21:11.447Z,17.67
2023-04-11T17:23:43.326Z,17.10
2023-04-11T17:26:12.466Z,17.20
2023-04-11T17:28:41.234Z,17.33
2023-04-11T17:31:15.235Z,15.70
2023-04-11T17:33:44.200Z,18.33
2023-04-11T17:36:14.706Z,17.13
2023-04-11T17:38:43.884Z,17.13
2023-04-11T17:41:15.365Z,18.07
2023-04-11T17:43:44.531Z,17.43
2023-04-11T17:46:14.716Z,17.57
2023-04-11T17:48:45.109Z,18.00
2023-04-11T17:51:14.409Z,17.83
2023-04-11T17:53:44.005Z,17.60
2023-04-11T17:56:12.650Z,16.27
2023-04-11T17:58:44.727Z,16.33
2023-04-11T18:01:32.793Z,19.17
2023-04-11T18:04:07.711Z,19.63
2023-04-11T18:06:36.182Z,15.87
2023-04-11T18:09:05.877Z,16.60
2023-04-11T18:11:34.343Z,16.13
2023-04-11T18:14:04.955Z,18.10
2023-04-11T18:16:35.846Z,17.00
2023-04-11T18:19:04.440Z,17.63
2023-04-11T18:21:32.705Z,16.57
2023-04-11T18:24:01.220Z,17.00
2023-04-11T18:26:33.464Z,17.53
2023-04-11T18:29:12.750Z,18.10
2023-04-11T18:31:46.242Z,19.23
2023-04-11T18:34:14.721Z,17.73
2023-04-11T18:37:23.746Z,18.10
2023-04-11T18:39:52.682Z,17.40
2023-04-11T18:42:21.177Z,17.03
2023-04-11T18:44:50.443Z,17.93
2023-04-11T18:47:45.016Z,16.90
2023-04-11T18:50:14.003Z,16.70
2023-04-11T18:52:43.710Z,15.17
2023-04-11T18:55:18.529Z,15.70
2023-04-11T18:57:48.880Z,15.73
2023-04-11T19:00:19.480Z,16.17
2023-04-11T19:02:54.898Z,16.23
2023-04-11T19:05:25.502Z,15.33
2023-04-11T19:07:54.073Z,16.40
2023-04-11T19:10:41.261Z,16.37
2023-04-11T19:13:12.062Z,16.40
2023-04-11T19:15:44.943Z,16.20
2023-04-11T19:18:14.995Z,16.00
2023-04-11T19:20:46.589Z,16.80
2023-04-11T19:23:16.055Z,16.50
2023-04-11T19:25:46.597Z,15.30
2023-04-11T19:28:22.572Z,17.37
2023-04-11T19:30:51.332Z,16.50
2023-04-11T19:33:47.468Z,16.53
2023-04-11T19:36:15.992Z,16.43
2023-04-11T19:38:44.374Z,16.50
2023-04-11T19:41:14.032Z,16.50
2023-04-11T19:43:50.078Z,16.50
2023-04-11T19:46:19.120Z,15.90
2023-04-11T19:48:49.012Z,16.47
2023-04-11T19:51:19.544Z,16.60
2023-04-11T19:53:50.507Z,17.20
2023-04-11T19:56:18.728Z,16.93
2023-04-11T19:58:50.010Z,16.70
2023-04-11T20:01:18.774Z,17.87
2023-04-11T20:03:53.684Z,16.67
2023-04-11T20:06:22.749Z,16.07
2023-04-11T20:08:51.165Z,16.67
2023-04-11T20:11:22.041Z,16.90
2023-04-11T20:13:50.276Z,18.17
2023-04-11T20:19:06.811Z,16.17
2023-04-11T20:21:35.435Z,16.33
2023-04-11T20:24:04.182Z,16.30
2023-04-11T20:26:44.489Z,17.93
2023-04-11T20:29:21.080Z,17.03
2023-04-11T20:31:56.912Z,17.00
2023-04-11T20:38:56.256Z,17.43
2023-04-11T20:41:47.458Z,17.03
2023-04-11T20:44:33.002Z,16.50
2023-04-11T20:47:03.762Z,15.97
2023-04-11T20:49:39.578Z,15.30
2023-04-11T20:52:09.084Z,17.80
2023-04-11T20:54:42.424Z,17.57
2023-04-11T20:57:30.484Z,17.13
2023-04-11T20:59:59.673Z,17.90
2023-04-11T21:02:35.055Z,17.47
2023-04-11T21:05:08.936Z,17.10
2023-04-11T21:07:45.679Z,16.50
2023-04-11T21:10:22.875Z,16.83
2023-04-11T21:12:56.185Z,15.50
2023-04-11T21:18:09.917Z,18.03
2023-04-11T21:21:01.210Z,17.67
2023-04-11T21:31:59.933Z,17.43
2023-04-11T21:34:28.855Z,17.53
2023-04-11T21:37:02.635Z,17.53
2023-04-11T21:39:31.841Z,17.03
2023-04-11T21:42:02.024Z,18.30
2023-04-11T21:44:40.361Z,17.90
2023-04-11T21:47:10.845Z,18.43
2023-04-11T21:49:40.428Z,23.47
2023-04-11T21:52:12.025Z,19.87
2023-04-11T21:54:40.378Z,19.90
2023-04-11T21:57:11.320Z,18.70
2023-04-11T21:59:51.507Z,17.57
2023-04-11T22:02:25.906Z,17.60
2023-04-11T22:05:06.347Z,17.57
2023-04-11T22:07:42.196Z,18.17
2023-04-11T22:10:17.384Z,18.60
2023-04-11T22:12:49.682Z,17.80
2023-04-11T22:15:20.003Z,18.60
2023-04-11T22:17:51.079Z,20.23
2023-04-11T22:20:21.109Z,17.70
2023-04-11T22:22:49.605Z,18.03
2023-04-11T22:25:18.659Z,18.37
2023-04-11T22:27:49.060Z,18.23
2023-04-11T22:30:17.963Z,18.60
2023-04-11T22:32:51.710Z,17.70
2023-04-11T22:35:22.750Z,19.07
2023-04-11T22:37:54.491Z,18.40
2023-04-11T22:40:23.263Z,19.30
2023-04-11T22:42:52.224Z,19.30
2023-04-11T22:45:24.522Z,19.87
2023-04-11T22:47:57.004Z,18.33
2023-04-11T22:50:28.559Z,19.53
2023-04-11T22:53:00.890Z,20.20
2023-04-11T22:55:29.383Z,19.13
2023-04-11T22:57:57.583Z,19.70
2023-04-11T23:00:26.414Z,19.10
2023-04-11T23:02:56.923Z,19.50
2023-04-11T23:05:25.873Z,18.50
2023-04-11T23:07:54.673Z,17.43
2023-04-11T23:10:30.141Z,17.60
2023-04-11T23:13:03.944Z,19.43
2023-04-11T23:15:32.976Z,18.50
2023-04-11T23:18:10.345Z,18.50
2023-04-11T23:20:39.029Z,17.60
2023-04-11T23:23:07.570Z,16.70
2023-04-11T23:25:40.877Z,17.30
2023-04-11T23:28:09.461Z,17.60
2023-04-11T23:30:41.956Z,17.83
2023-04-11T23:33:11.704Z,17.90
2023-04-11T23:35:43.596Z,17.30
2023-04-11T23:38:18.818Z,18.13
2023-04-11T23:40:50.737Z,17.37
2023-04-11T23:43:29.335Z,17.57
2023-04-11T23:46:41.362Z,17.37
2023-04-11T23:51:56.602Z,17.67
2023-04-11T23:54:30.022Z,17.57
2023-04-11T23:57:01.617Z,16.83
2023-04-11T23:59:30.005Z,17.33
